Berryton, Kansas
Current Conditions -  °F | °C
As of 10:53 AM on Friday 28 Nov 2014 (Local Time) from KFOE Reporting Station
Clear Clear  
Wind Chill: 51°   Ceiling: Unl
Heat Index: 51°   Visibility: 10mi
Dew Point: 29°   Wind: 17mph
Humidity: 43%   Direction: 200°SSW
Pressure: 29.91"   Gusts: NA
Location:  38.94°N, 95.63°W
Report Text: KFOE 281653Z 20015KT 10SM CLR 11/M02 A2991 RMK AO2 SLP134 T01061017
Loading
Personal Weather Stations






























Interactive Weather Map New forecast layout! Learn more

10-Day Weather Forecast

Advertisements
Track Severe Weather on mobile